Time;durP1;ratioP1;P1;durP2;ratioP2;P2;SDS_P1;SDS_P2;PMS_P1;PMS_P2;Temp;Humidity;BMP_temperature;BMP_pressure;BME280_temperature;BME280_humidity;BME280_pressure;Samples;Min_cycle;Max_cycle;Signal;HPM_P1;HPM_P2
2024/01/12 00:01:21;;;;;;;;;22.50;21.75;;;;;0.41;100.00;103051.25;4980509;28;46246;-77
2024/01/12 00:03:46;;;;;;;;;30.75;25.00;;;;;0.53;100.00;103071.47;4977019;28;45488;-76
2024/01/12 00:06:11;;;;;;;;;37.00;27.00;;;;;0.54;100.00;103069.03;4981366;28;45174;-76
2024/01/12 00:08:38;;;;;;;;;36.25;31.00;;;;;0.53;100.00;103061.97;4978043;28;45215;-76
2024/01/12 00:11:07;;;;;;;;;36.00;28.33;;;;;0.56;100.00;103066.56;4980684;28;45475;-76
2024/01/12 00:13:32;;;;;;;;;37.25;29.25;;;;;0.59;100.00;103079.91;4978630;28;45225;-76
2024/01/12 00:15:57;;;;;;;;;37.33;26.00;;;;;0.57;100.00;103068.44;4980847;28;45325;-76
2024/01/12 00:18:23;;;;;;;;;26.00;23.00;;;;;0.50;100.00;103059.06;4978435;28;45300;-76
2024/01/12 00:20:48;;;;;;;;;34.00;27.75;;;;;0.58;100.00;103078.06;4990411;28;45893;-76
2024/01/12 00:23:13;;;;;;;;;31.00;23.50;;;;;0.72;100.00;103114.22;4977634;28;55223;-76
2024/01/12 00:25:39;;;;;;;;;29.50;23.00;;;;;0.72;100.00;103102.88;4979594;28;45381;-77
2024/01/12 00:28:04;;;;;;;;;33.50;22.50;;;;;0.58;100.00;103068.56;4977059;28;45352;-76
2024/01/12 00:30:29;;;;;;;;;27.00;23.25;;;;;0.68;100.00;103085.13;4980635;28;45322;-76
2024/01/12 00:32:55;;;;;;;;;35.75;26.00;;;;;0.74;100.00;103099.66;4977324;28;45108;-77
2024/01/12 00:35:20;;;;;;;;;29.50;23.00;;;;;0.67;100.00;103081.59;4980107;28;51844;-76
2024/01/12 00:37:48;;;;;;;;;36.75;23.75;;;;;0.65;100.00;103073.63;4977813;28;45175;-76
2024/01/12 00:40:14;;;;;;;;;26.75;22.25;;;;;0.76;100.00;103092.94;4980636;28;45476;-77
2024/01/12 00:42:39;;;;;;;;;26.00;19.50;;;;;0.81;100.00;103098.59;4976146;28;46982;-77
2024/01/12 00:45:05;;;;;;;;;33.75;25.75;;;;;0.79;100.00;103088.03;4979553;28;47294;-76
2024/01/12 00:47:30;;;;;;;;;30.75;26.25;;;;;0.80;100.00;103084.66;4977733;28;45397;-77
2024/01/12 00:49:56;;;;;;;;;30.50;25.75;;;;;0.73;100.00;103064.00;4979034;28;45336;-77
2024/01/12 00:52:21;;;;;;;;;26.75;23.00;;;;;0.98;100.00;103098.63;4993181;28;50829;-77
2024/01/12 00:54:46;;;;;;;;;28.25;22.75;;;;;0.87;100.00;103071.50;4979269;28;44761;-77
2024/01/12 00:57:12;;;;;;;;;26.75;22.75;;;;;1.03;100.00;103086.03;4978525;28;45428;-77
2024/01/12 00:59:38;;;;;;;;;24.75;20.25;;;;;0.98;100.00;103075.19;4976524;28;45420;-77
2024/01/12 01:02:03;;;;;;;;;21.25;20.75;;;;;0.97;100.00;103068.13;4994989;28;47274;-77
2024/01/12 01:04:28;;;;;;;;;23.75;17.25;;;;;1.07;100.00;103067.38;4976169;28;45319;-77
2024/01/12 01:06:54;;;;;;;;;24.25;17.75;;;;;1.20;100.00;103082.50;4979601;28;44719;-77
2024/01/12 01:09:19;;;;;;;;;22.25;18.75;;;;;1.08;100.00;103048.34;4976770;28;45491;-76
2024/01/12 01:11:45;;;;;;;;;23.25;19.50;;;;;0.98;100.00;103016.97;4978315;28;46746;-76
2024/01/12 01:14:10;;;;;;;;;19.00;16.75;;;;;1.11;100.00;103020.00;4977446;28;45270;-76
2024/01/12 01:16:35;;;;;;;;;25.00;17.75;;;;;1.37;100.00;103066.81;4980363;28;45219;-77
2024/01/12 01:19:01;;;;;;;;;20.25;17.25;;;;;1.32;100.00;103055.97;4976746;28;45501;-76
2024/01/12 01:21:26;;;;;;;;;22.75;16.00;;;;;1.38;100.00;103046.94;4979290;28;46377;-76
2024/01/12 01:23:52;;;;;;;;;15.50;15.25;;;;;1.10;100.00;102992.13;4976963;28;45283;-76
2024/01/12 01:26:17;;;;;;;;;15.00;9.50;;;;;1.42;100.00;103038.63;4979807;28;45221;-76
2024/01/12 01:28:43;;;;;;;;;24.25;17.75;;;;;1.44;100.00;103035.41;4976574;28;45512;-76
2024/01/12 01:31:08;;;;;;;;;15.00;13.50;;;;;1.48;100.00;103045.34;4978248;28;46929;-77
2024/01/12 01:33:33;;;;;;;;;13.00;11.50;;;;;1.43;100.00;103036.19;4977123;28;45311;-76
2024/01/12 01:35:59;;;;;;;;;15.75;13.00;;;;;1.48;100.00;103031.41;4994304;28;45408;-77
2024/01/12 01:38:24;;;;;;;;;17.00;16.00;;;;;1.59;100.00;103043.78;4974488;28;45628;-76
2024/01/12 01:40:49;;;;;;;;;13.75;10.00;;;;;1.72;100.00;103061.53;4978290;28;65661;-76
2024/01/12 01:43:15;;;;;;;;;19.75;16.00;;;;;1.65;100.00;103057.41;4976303;28;45304;-77
2024/01/12 01:45:40;;;;;;;;;20.00;14.25;;;;;1.73;100.00;103058.13;4979122;28;45372;-77
2024/01/12 01:48:07;;;;;;;;;13.50;11.75;;;;;1.86;100.00;103070.69;4974363;28;44711;-76
2024/01/12 01:50:34;;;;;;;;;9.25;9.00;;;;;1.73;100.00;103038.19;4978774;28;45508;-76
2024/01/12 01:53:00;;;;;;;;;19.50;15.50;;;;;1.84;100.00;103040.94;4972877;28;45215;-76
2024/01/12 01:55:28;;;;;;;;;16.75;12.50;;;;;1.98;100.00;103066.63;4985088;28;45339;-76
2024/01/12 01:57:55;;;;;;;;;16.50;13.25;;;;;2.08;100.00;103061.53;4981660;28;44850;-76
2024/01/12 02:00:22;;;;;;;;;16.75;12.75;;;;;2.01;100.00;103035.63;4985314;28;46425;-77
2024/01/12 02:02:48;;;;;;;;;17.00;11.75;;;;;2.06;100.00;103044.81;4981550;28;45380;-77
2024/01/12 02:05:14;;;;;;;;;14.75;12.00;;;;;2.15;100.00;103045.66;4982716;28;44894;-77
2024/01/12 02:07:42;;;;;;;;;14.50;11.25;;;;;2.19;100.00;103033.84;4987273;28;47337;-77
2024/01/12 02:10:09;;;;;;;;;14.00;14.00;;;;;2.36;100.00;103052.00;4982378;28;45757;-77
2024/01/12 02:12:35;;;;;;;;;19.75;13.25;;;;;2.41;100.00;103049.81;4979857;28;45377;-76
2024/01/12 02:15:01;;;;;;;;;16.75;12.75;;;;;2.40;100.00;103047.97;4979641;28;45267;-77
2024/01/12 02:17:27;;;;;;;;;19.50;12.25;;;;;2.45;100.00;103047.63;4982898;28;45487;-77
2024/01/12 02:19:59;;;;;;;;;14.00;13.00;;;;;2.54;100.00;103050.16;4982965;28;45438;-75
2024/01/12 02:22:25;;;;;;;;;21.00;15.50;;;;;2.59;100.00;103042.78;4982886;28;45362;-77
2024/01/12 02:24:50;;;;;;;;;19.00;14.75;;;;;2.52;100.00;103025.63;4980764;28;45342;-75
2024/01/12 02:27:16;;;;;;;;;21.75;17.50;;;;;2.57;100.00;103034.78;4982706;28;55663;-77
2024/01/12 02:29:42;;;;;;;;;17.50;13.50;;;;;2.59;100.00;103030.63;4982753;28;45341;-74
2024/01/12 02:32:07;;;;;;;;;17.25;16.75;;;;;2.61;100.00;103034.31;4983112;28;45375;-74
2024/01/12 02:34:33;;;;;;;;;20.25;17.00;;;;;2.58;100.00;103031.41;4981697;28;45323;-77
2024/01/12 02:36:58;;;;;;;;;20.50;16.00;;;;;2.57;100.00;103018.22;4982827;28;45333;-75
2024/01/12 02:39:24;;;;;;;;;22.25;17.50;;;;;2.73;100.00;103044.03;4981115;28;46677;-74
2024/01/12 02:41:49;;;;;;;;;20.25;16.50;;;;;2.56;100.00;103013.78;4982981;28;45184;-74
2024/01/12 02:44:14;;;;;;;;;18.50;17.75;;;;;2.71;100.00;103033.44;4982531;28;45287;-75
2024/01/12 02:46:40;;;;;;;;;16.75;16.50;;;;;2.77;100.00;103041.84;4982755;28;45228;-75
2024/01/12 02:49:05;;;;;;;;;19.75;14.25;;;;;2.64;100.00;103013.69;4981103;28;53864;-75
2024/01/12 02:51:30;;;;;;;;;20.25;15.50;;;;;2.54;100.00;102992.72;4980879;28;45258;-75
2024/01/12 02:53:57;;;;;;;;;20.25;17.50;;;;;2.72;100.00;103031.75;4980336;28;54859;-75
2024/01/12 02:56:22;;;;;;;;;21.75;15.75;;;;;2.60;100.00;103003.72;4982435;28;45297;-75
2024/01/12 02:58:47;;;;;;;;;28.00;24.50;;;;;2.71;100.00;103022.09;4982216;28;45293;-74
2024/01/12 03:01:13;;;;;;;;;30.75;24.00;;;;;2.55;100.00;103001.47;4982392;28;45230;-75
2024/01/12 03:03:38;;;;;;;;;26.50;23.50;;;;;2.59;100.00;103004.53;4982477;28;45653;-75
2024/01/12 03:06:05;;;;;;;;;28.25;18.00;;;;;2.73;100.00;103020.53;4982322;28;45425;-76
2024/01/12 03:08:30;;;;;;;;;25.75;21.50;;;;;2.66;100.00;103025.22;4980745;28;45400;-75
2024/01/12 03:10:55;;;;;;;;;29.50;27.00;;;;;2.57;100.00;103005.16;4981843;28;59282;-75
2024/01/12 03:13:21;;;;;;;;;30.75;26.00;;;;;2.52;100.00;103004.75;4982284;28;48598;-75
2024/01/12 03:15:46;;;;;;;;;26.50;23.50;;;;;2.57;100.00;103007.75;4982290;28;45338;-75
2024/01/12 03:18:11;;;;;;;;;28.50;23.25;;;;;2.54;100.00;103003.19;4982100;28;45283;-75
2024/01/12 03:20:37;;;;;;;;;31.50;23.50;;;;;2.50;100.00;102990.63;4982153;28;45254;-77
2024/01/12 03:23:02;;;;;;;;;28.00;21.75;;;;;2.76;100.00;103031.28;4981537;28;53373;-74
2024/01/12 03:25:28;;;;;;;;;25.75;19.50;;;;;2.58;100.00;103002.69;4982061;28;45308;-77
2024/01/12 03:27:53;;;;;;;;;28.00;21.25;;;;;2.74;100.00;103028.50;4981290;28;45354;-76
2024/01/12 03:30:18;;;;;;;;;21.25;17.25;;;;;2.52;100.00;102996.91;4982045;28;45330;-76
2024/01/12 03:32:44;;;;;;;;;27.50;22.25;;;;;2.66;100.00;103026.88;4982201;28;45222;-74
2024/01/12 03:35:09;;;;;;;;;27.25;22.50;;;;;2.46;100.00;102992.06;4982110;28;45499;-76
2024/01/12 03:37:35;;;;;;;;;21.25;15.00;;;;;2.76;100.00;103031.28;4981693;28;45436;-76
2024/01/12 03:40:00;;;;;;;;;16.25;15.00;;;;;2.69;100.00;103017.66;4982064;28;45307;-75
2024/01/12 03:42:26;;;;;;;;;14.25;11.50;;;;;2.71;100.00;103016.88;4981918;28;45618;-75
2024/01/12 03:44:51;;;;;;;;;21.50;18.00;;;;;2.84;100.00;103020.75;4981847;28;45215;-75
2024/01/12 03:47:16;;;;;;;;;32.25;24.75;;;;;2.83;100.00;103011.09;4981138;28;58493;-75
2024/01/12 03:49:43;;;;;;;;;33.25;23.50;;;;;2.84;100.00;102992.00;4981988;28;45218;-75
2024/01/12 03:52:09;;;;;;;;;33.25;25.75;;;;;2.74;100.00;102975.38;4981599;28;45412;-75
2024/01/12 03:54:34;;;;;;;;;33.50;25.50;;;;;2.93;100.00;103002.38;4986965;28;45275;-76
2024/01/12 03:56:59;;;;;;;;;27.25;22.75;;;;;2.88;100.00;102983.66;4978197;28;45617;-75
2024/01/12 03:59:25;;;;;;;;;39.50;30.00;;;;;2.84;100.00;102970.22;5001757;28;45370;-77
2024/01/12 04:01:50;;;;;;;;;32.75;29.75;;;;;2.94;100.00;102970.28;4973866;28;45422;-76
2024/01/12 04:04:15;;;;;;;;;28.00;21.50;;;;;2.90;100.00;102965.53;4986150;28;45335;-75
2024/01/12 04:06:41;;;;;;;;;46.50;28.00;;;;;3.10;100.00;102996.97;4979763;28;47154;-74
2024/01/12 04:09:09;;;;;;;;;32.25;30.00;;;;;3.07;100.00;102980.09;4991814;28;45334;-74
2024/01/12 04:11:36;;;;;;;;;35.50;29.50;;;;;2.96;100.00;102966.06;4990046;28;45365;-75
2024/01/12 04:14:01;;;;;;;;;35.00;26.75;;;;;3.10;100.00;102977.75;4974304;28;47490;-75
2024/01/12 04:16:26;;;;;;;;;33.00;25.50;;;;;3.27;100.00;103000.16;4972934;28;46387;-75
2024/01/12 04:18:52;;;;;;;;;33.25;30.50;;;;;3.24;100.00;103000.81;4991818;28;45442;-74
2024/01/12 04:21:17;;;;;;;;;29.50;26.75;;;;;3.14;100.00;102985.13;4992517;28;45341;-75
2024/01/12 04:23:43;;;;;;;;;32.00;24.25;;;;;3.32;100.00;103005.03;4972558;28;45581;-74
2024/01/12 04:26:08;;;;;;;;;32.75;30.50;;;;;3.12;100.00;102966.66;4991328;28;45417;-74
2024/01/12 04:28:34;;;;;;;;;45.75;31.00;;;;;3.24;100.00;102989.44;4990179;28;45346;-76
2024/01/12 04:31:02;;;;;;;;;41.25;29.00;;;;;3.36;100.00;103008.81;4992213;28;45554;-75
2024/01/12 04:33:29;;;;;;;;;19.75;15.25;;;;;3.21;100.00;102976.13;4990807;28;45289;-76
2024/01/12 04:35:54;;;;;;;;;31.50;29.75;;;;;3.16;100.00;102960.00;4991242;28;46579;-75
2024/01/12 04:38:20;;;;;;;;;32.75;23.50;;;;;3.31;100.00;102994.47;4989836;28;53602;-74
2024/01/12 04:40:45;;;;;;;;;36.25;32.75;;;;;3.38;100.00;102999.44;4990086;28;45238;-76
2024/01/12 04:43:10;;;;;;;;;38.50;27.25;;;;;3.44;100.00;103010.44;4991908;28;45406;-77
2024/01/12 04:45:36;;;;;;;;;37.75;33.25;;;;;3.46;100.00;103007.97;4989795;28;46272;-78
2024/01/12 04:48:01;;;;;;;;;30.00;24.00;;;;;3.31;100.00;102981.38;4989770;28;50239;-78
2024/01/12 04:50:26;;;;;;;;;39.75;27.25;;;;;3.45;100.00;103003.53;4990046;28;45167;-78
2024/01/12 04:52:52;;;;;;;;;39.00;30.25;;;;;3.25;100.00;102966.09;4990300;28;45976;-78
2024/01/12 04:55:18;;;;;;;;;31.00;25.25;;;;;3.43;100.00;103002.47;4963074;28;45255;-78
2024/01/12 04:57:43;;;;;;;;;34.75;27.50;;;;;3.38;100.00;102985.44;4960542;28;45244;-77
2024/01/12 05:00:09;;;;;;;;;33.00;26.00;;;;;3.26;100.00;102967.00;4943114;28;45240;-77
2024/01/12 05:02:35;;;;;;;;;33.00;28.50;;;;;3.36;100.00;102967.00;4960434;28;46327;-80
2024/01/12 05:05:00;;;;;;;;;33.25;28.75;;;;;3.52;100.00;102991.09;4960428;28;45554;-78
2024/01/12 05:07:25;;;;;;;;;31.00;25.00;;;;;3.47;100.00;102984.53;4960011;28;45343;-78
2024/01/12 05:09:51;;;;;;;;;30.50;26.50;;;;;3.49;100.00;102985.59;4960707;28;45307;-78
2024/01/12 05:12:16;;;;;;;;;29.00;23.00;;;;;3.36;100.00;102949.66;4960382;28;45326;-78
2024/01/12 05:14:41;;;;;;;;;35.75;27.25;;;;;3.45;100.00;102962.59;4960872;28;47383;-79
2024/01/12 05:17:07;;;;;;;;;35.50;28.75;;;;;3.43;100.00;102965.88;4960219;28;45354;-78
2024/01/12 05:19:32;;;;;;;;;34.00;23.50;;;;;3.45;100.00;102959.09;4960434;28;45281;-76
2024/01/12 05:21:58;;;;;;;;;24.25;21.50;;;;;3.62;100.00;102994.56;4959931;28;45236;-76
2024/01/12 05:24:23;;;;;;;;;21.50;18.00;;;;;3.57;100.00;102981.97;4959925;28;45221;-75
2024/01/12 05:26:50;;;;;;;;;35.75;26.75;;;;;3.57;100.00;102975.84;4958962;28;45363;-75
2024/01/12 05:29:15;;;;;;;;;29.75;26.50;;;;;3.31;100.00;102922.19;4942924;28;45235;-75
2024/01/12 05:31:44;;;;;;;;;31.00;24.00;;;;;3.50;100.00;102948.25;4960578;28;44800;-75
2024/01/12 05:34:09;;;;;;;;;31.75;26.50;;;;;3.52;100.00;102950.97;4961442;28;45494;-76
2024/01/12 05:36:35;;;;;;;;;30.50;24.00;;;;;3.67;100.00;102985.38;4963118;28;45223;-75
2024/01/12 05:39:01;;;;;;;;;27.00;21.00;;;;;3.68;100.00;102980.28;4963573;28;45293;-76
2024/01/12 05:41:26;;;;;;;;;35.00;29.25;;;;;3.47;100.00;102941.81;4962596;28;45281;-76
2024/01/12 05:43:52;;;;;;;;;28.25;19.50;;;;;3.55;100.00;102949.53;4961562;28;47714;-75
2024/01/12 05:46:19;;;;;;;;;34.25;28.50;;;;;3.52;100.00;102950.97;4963213;28;45192;-75
2024/01/12 05:48:45;;;;;;;;;37.00;28.50;;;;;3.74;100.00;102985.16;4961349;28;45252;-75
2024/01/12 05:51:13;;;;;;;;;35.50;28.75;;;;;3.74;100.00;102978.22;4959672;28;45577;-76
2024/01/12 05:53:38;;;;;;;;;24.25;15.25;;;;;3.71;100.00;102974.41;4964130;28;46349;-76
2024/01/12 05:56:04;;;;;;;;;36.50;26.00;;;;;3.77;100.00;102983.69;4978884;28;48498;-77
2024/01/12 05:58:29;;;;;;;;;30.00;24.25;;;;;3.67;100.00;102967.06;4979403;28;45232;-78
2024/01/12 06:00:55;;;;;;;;;26.50;23.25;;;;;3.59;100.00;102953.34;4978919;28;45724;-79
2024/01/12 06:03:20;;;;;;;;;32.75;25.00;;;;;3.75;100.00;102973.88;4961970;28;46791;-77
2024/01/12 06:05:48;;;;;;;;;33.00;29.75;;;;;3.53;100.00;102934.53;4978757;28;45550;-77
2024/01/12 06:08:13;;;;;;;;;34.75;26.50;;;;;3.71;100.00;102971.81;4978906;28;45460;-75
2024/01/12 06:10:39;;;;;;;;;33.25;27.75;;;;;3.59;100.00;102942.91;4978884;28;45475;-75
2024/01/12 06:13:04;;;;;;;;;26.00;18.75;;;;;3.62;100.00;102944.88;4978642;28;53486;-75
2024/01/12 06:15:29;;;;;;;;;37.00;32.00;;;;;3.78;100.00;102977.72;4978003;28;53056;-75
2024/01/12 06:17:57;;;;;;;;;40.00;31.75;;;;;3.88;100.00;102997.72;4979387;28;52487;-75
2024/01/12 06:20:22;;;;;;;;;39.00;30.75;;;;;3.70;100.00;102969.97;4979647;28;45476;-76
2024/01/12 06:22:48;;;;;;;;;32.75;30.25;;;;;3.82;100.00;102989.34;4979381;28;45316;-76
2024/01/12 06:25:13;;;;;;;;;29.75;27.25;;;;;3.69;100.00;102970.75;4979475;28;45231;-76
2024/01/12 06:27:41;;;;;;;;;34.50;32.00;;;;;3.78;100.00;102982.00;4994424;28;45184;-76
2024/01/12 06:30:07;;;;;;;;;34.75;30.25;;;;;3.77;100.00;102983.69;4976968;28;45761;-76
2024/01/12 06:32:32;;;;;;;;;36.25;26.50;;;;;3.66;100.00;102966.16;4978826;28;46401;-76
2024/01/12 06:34:58;;;;;;;;;37.50;34.00;;;;;3.87;100.00;103008.97;4978766;28;45339;-77
2024/01/12 06:37:23;;;;;;;;;30.25;21.25;;;;;3.62;100.00;102952.72;4978863;28;45326;-76
2024/01/12 06:39:49;;;;;;;;;42.25;30.00;;;;;3.76;100.00;102980.97;4978823;28;45342;-76
2024/01/12 06:42:15;;;;;;;;;46.75;36.50;;;;;3.78;100.00;102992.47;4978926;28;45290;-76
2024/01/12 06:44:41;;;;;;;;;40.25;31.00;;;;;3.64;100.00;102972.03;4971409;28;45393;-77
2024/01/12 06:47:07;;;;;;;;;30.75;30.50;;;;;3.72;100.00;102976.25;4979705;28;45255;-77
2024/01/12 06:49:33;;;;;;;;;46.00;36.25;;;;;3.72;100.00;102982.38;4979422;28;45594;-77
2024/01/12 06:51:58;;;;;;;;;32.50;29.75;;;;;3.71;100.00;102977.94;4979020;28;45635;-76
2024/01/12 06:54:24;;;;;;;;;46.75;31.25;;;;;3.89;100.00;103003.88;4984407;28;45207;-76
2024/01/12 06:56:51;;;;;;;;;46.00;27.50;;;;;3.77;100.00;102988.03;4990480;28;45307;-76
2024/01/12 06:59:17;;;;;;;;;38.75;30.75;;;;;3.89;100.00;103003.88;4998489;28;45394;-78
2024/01/12 07:01:42;;;;;;;;;45.75;34.50;;;;;3.76;100.00;102986.19;4989095;28;45337;-76
2024/01/12 07:04:07;;;;;;;;;48.75;38.25;;;;;3.71;100.00;102972.72;4986910;28;45323;-76
2024/01/12 07:06:33;;;;;;;;;44.50;35.00;;;;;3.62;100.00;102957.94;5001680;28;45978;-76
2024/01/12 07:08:58;;;;;;;;;44.25;36.75;;;;;3.66;100.00;102965.25;5001609;28;45401;-76
2024/01/12 07:11:24;;;;;;;;;75.00;53.00;;;;;3.79;100.00;102986.47;5001751;28;45326;-77
2024/01/12 07:13:49;;;;;;;;;45.50;38.00;;;;;3.67;100.00;102983.72;5001706;28;45306;-76
2024/01/12 07:16:14;;;;;;;;;54.75;45.00;;;;;3.79;100.00;102996.94;5001730;28;51831;-76
2024/01/12 07:18:41;;;;;;;;;44.25;26.75;;;;;3.84;100.00;103008.72;5002393;28;45157;-77
2024/01/12 07:21:06;;;;;;;;;77.25;57.75;;;;;3.56;100.00;102974.00;5002067;28;45575;-77
2024/01/12 07:23:32;;;;;;;;;44.00;39.00;;;;;3.74;100.00;102999.13;4986399;28;51964;-77
2024/01/12 07:25:58;;;;;;;;;48.00;39.75;;;;;3.77;100.00;103003.72;4981824;28;45291;-77
2024/01/12 07:28:25;;;;;;;;;43.25;38.50;;;;;3.83;100.00;103017.31;4983408;28;46259;-77
2024/01/12 07:30:52;;;;;;;;;53.50;42.25;;;;;3.72;100.00;102998.06;5001366;28;45254;-77
2024/01/12 07:33:19;;;;;;;;;55.00;39.25;;;;;3.78;100.00;103014.34;5001516;28;45472;-77
2024/01/12 07:35:44;;;;;;;;;42.00;34.25;;;;;3.69;100.00;103005.66;4985053;28;45440;-78
2024/01/12 07:38:09;;;;;;;;;37.75;34.75;;;;;3.67;100.00;102995.84;5001856;28;62117;-78
2024/01/12 07:40:35;;;;;;;;;44.50;33.50;;;;;3.57;100.00;102986.28;5002268;28;56122;-77
2024/01/12 07:43:00;;;;;;;;;35.25;33.50;;;;;3.65;100.00;102990.50;4983648;28;45305;-76
2024/01/12 07:45:25;;;;;;;;;43.25;36.00;;;;;3.58;100.00;102975.97;5000919;28;50553;-76
2024/01/12 07:47:51;;;;;;;;;49.00;32.25;;;;;3.77;100.00;103009.84;5000881;28;46873;-77
2024/01/12 07:50:16;;;;;;;;;47.25;38.00;;;;;3.76;100.00;103004.50;5000459;28;64179;-77
2024/01/12 07:52:41;;;;;;;;;29.00;26.25;;;;;3.51;100.00;102964.84;4982769;28;45251;-76
2024/01/12 07:55:07;;;;;;;;;34.50;24.50;;;;;3.55;100.00;102974.78;4977131;28;48348;-77
2024/01/12 07:57:32;;;;;;;;;37.50;33.00;;;;;3.32;100.00;102934.47;4981043;28;45234;-76
2024/01/12 07:59:58;;;;;;;;;34.00;28.75;;;;;3.69;100.00;102999.50;4981351;28;62142;-79
2024/01/12 08:02:23;;;;;;;;;31.00;27.25;;;;;3.73;100.00;103007.78;4980658;28;45214;-76
2024/01/12 08:04:49;;;;;;;;;43.25;30.75;;;;;3.81;100.00;103022.44;4980672;28;45224;-77
2024/01/12 08:07:14;;;;;;;;;38.00;33.75;;;;;3.67;100.00;102988.00;4980382;28;45274;-76
2024/01/12 08:09:40;;;;;;;;;41.25;34.75;;;;;3.78;100.00;103005.53;4979899;28;55670;-74
2024/01/12 08:12:05;;;;;;;;;43.25;33.25;;;;;3.54;100.00;102960.78;4978031;28;53960;-76
2024/01/12 08:14:31;;;;;;;;;38.25;30.50;;;;;3.66;100.00;102988.78;4980315;28;45298;-75
2024/01/12 08:16:56;;;;;;;;;39.50;35.00;;;;;3.56;100.00;102955.72;4980763;28;45352;-76
2024/01/12 08:19:21;;;;;;;;;49.75;38.25;;;;;3.83;100.00;103005.94;4980771;28;55575;-76
2024/01/12 08:21:47;;;;;;;;;83.00;65.00;;;;;3.70;100.00;102983.06;4995138;28;55361;-75
2024/01/12 08:24:12;;;;;;;;;31.75;28.00;;;;;3.68;100.00;102976.78;4980082;28;50644;-76
2024/01/12 08:26:37;;;;;;;;;45.25;38.50;;;;;3.73;100.00;102983.31;4980198;28;45313;-75
2024/01/12 08:29:02;;;;;;;;;30.50;25.75;;;;;3.87;100.00;103003.75;4980141;28;51491;-76
2024/01/12 08:31:29;;;;;;;;;45.75;36.75;;;;;3.81;100.00;102998.91;4995857;28;45303;-75
2024/01/12 08:33:54;;;;;;;;;42.75;33.25;;;;;3.87;100.00;103003.75;4980985;28;45337;-80
2024/01/12 08:36:19;;;;;;;;;41.25;29.75;;;;;3.63;100.00;102965.91;4980566;28;45298;-76
2024/01/12 08:38:45;;;;;;;;;35.00;24.75;;;;;3.63;100.00;102963.28;4980061;28;46332;-76
2024/01/12 08:41:10;;;;;;;;;31.50;25.00;;;;;3.74;100.00;102982.53;4980643;28;45296;-76
2024/01/12 08:43:36;;;;;;;;;38.00;28.00;;;;;3.61;100.00;102959.59;4982387;28;45637;-76
2024/01/12 08:46:01;;;;;;;;;30.25;28.25;;;;;3.84;100.00;103002.53;4980063;28;45583;-77
2024/01/12 08:48:26;;;;;;;;;35.25;30.00;;;;;3.71;100.00;102975.34;4978836;28;57200;-77
2024/01/12 08:50:51;;;;;;;;;43.50;37.75;;;;;3.68;100.00;102969.84;4979874;28;46350;-76
2024/01/12 08:53:17;;;;;;;;;44.75;34.75;;;;;3.66;100.00;102960.94;4980536;28;47428;-76
2024/01/12 08:55:42;;;;;;;;;34.00;29.75;;;;;3.74;100.00;102990.38;4985564;28;60628;-77
2024/01/12 08:58:09;;;;;;;;;38.25;26.25;;;;;3.90;100.00;103013.56;4999638;28;50682;-76
2024/01/12 09:00:35;;;;;;;;;27.00;24.75;;;;;3.69;100.00;102986.44;4998546;28;44785;-77
2024/01/12 09:03:00;;;;;;;;;36.00;28.50;;;;;3.88;100.00;103016.03;4980825;28;45308;-77
2024/01/12 09:05:25;;;;;;;;;33.75;26.75;;;;;3.78;100.00;103002.91;4996626;28;45192;-77
2024/01/12 09:07:51;;;;;;;;;36.50;29.00;;;;;3.56;100.00;102968.78;4981829;28;47262;-77
2024/01/12 09:10:16;;;;;;;;;30.25;27.75;;;;;3.80;100.00;103015.34;4982429;28;45685;-77
2024/01/12 09:12:42;;;;;;;;;34.75;24.75;;;;;3.83;100.00;103019.94;4999795;28;45424;-77
2024/01/12 09:15:08;;;;;;;;;33.75;27.25;;;;;3.72;100.00;103005.00;4999991;28;45265;-77
2024/01/12 09:17:34;;;;;;;;;36.00;29.75;;;;;3.70;100.00;102998.75;4999805;28;45329;-77
2024/01/12 09:19:59;;;;;;;;;32.50;24.50;;;;;3.59;100.00;102984.75;4989636;28;45481;-77
2024/01/12 09:22:25;;;;;;;;;29.75;28.00;;;;;3.68;100.00;102992.47;5000167;28;45346;-76
2024/01/12 09:24:50;;;;;;;;;31.75;27.50;;;;;3.87;100.00;103024.69;4999407;28;45309;-76
2024/01/12 09:27:15;;;;;;;;;20.75;15.00;;;;;3.79;100.00;103003.06;4981415;28;49313;-76
2024/01/12 09:29:41;;;;;;;;;28.00;28.00;;;;;3.81;100.00;103014.59;4999776;28;51849;-76
2024/01/12 09:32:06;;;;;;;;;37.50;30.50;;;;;3.78;100.00;103002.91;5000360;28;45270;-76
2024/01/12 09:34:31;;;;;;;;;34.00;29.75;;;;;3.85;100.00;103013.16;4982112;28;45562;-78
2024/01/12 09:36:57;;;;;;;;;43.00;33.00;;;;;3.69;100.00;102987.34;4999567;28;45473;-76
2024/01/12 09:39:22;;;;;;;;;46.25;38.50;;;;;3.89;100.00;103025.69;4981481;28;56137;-76
2024/01/12 09:41:49;;;;;;;;;39.50;31.25;;;;;3.59;100.00;102966.44;4999829;28;45240;-76
2024/01/12 09:44:18;;;;;;;;;42.75;35.75;;;;;4.03;100.00;103046.16;4999615;28;45464;-76
2024/01/12 09:46:55;;;;;;;;;36.50;26.25;;;;;3.81;100.00;103014.59;4999998;28;45648;-76
2024/01/12 09:49:22;;;;;;;;;44.75;37.00;;;;;4.02;100.00;103046.94;4999656;28;45387;-76
2024/01/12 09:51:48;;;;;;;;;48.25;38.00;;;;;3.81;100.00;103029.38;4999925;28;45298;-76
2024/01/12 09:54:13;;;;;;;;;49.75;39.25;;;;;3.94;100.00;103050.56;4977333;28;45961;-77
2024/01/12 09:56:41;;;;;;;;;43.25;32.75;;;;;3.93;100.00;103056.59;4990828;28;45560;-76
2024/01/12 09:59:07;;;;;;;;;50.50;38.00;;;;;3.89;100.00;103044.00;4981643;28;45357;-76
2024/01/12 10:01:33;;;;;;;;;52.75;39.00;;;;;3.80;100.00;103030.16;4991800;28;45286;-76
2024/01/12 10:03:58;;;;;;;;;48.00;39.00;;;;;3.83;100.00;103045.19;4966516;28;45525;-76
2024/01/12 10:06:25;;;;;;;;;49.50;38.00;;;;;3.81;100.00;103051.22;4981493;28;47916;-76
2024/01/12 10:08:50;;;;;;;;;39.25;33.25;;;;;4.02;100.00;103072.19;4999409;28;45460;-76
2024/01/12 10:11:15;;;;;;;;;44.25;34.75;;;;;4.04;100.00;103076.78;4981976;28;45247;-76
2024/01/12 10:13:41;;;;;;;;;51.00;41.75;;;;;3.75;100.00;103028.81;4999226;28;44839;-76
2024/01/12 10:16:07;;;;;;;;;43.75;40.00;;;;;3.90;100.00;103052.81;4998954;28;63722;-76
2024/01/12 10:18:33;;;;;;;;;38.00;31.75;;;;;3.87;100.00;103055.16;4999161;28;44749;-76
2024/01/12 10:20:59;;;;;;;;;42.75;35.50;;;;;3.95;100.00;103075.03;4998849;28;45188;-76
2024/01/12 10:23:26;;;;;;;;;38.25;37.00;;;;;3.82;100.00;103065.22;4990832;28;45165;-76
2024/01/12 10:25:59;;;;;;;;;51.75;40.00;;;;;3.93;100.00;103082.75;4989919;28;45574;-75
2024/01/12 10:28:29;;;;;;;;;43.25;33.75;;;;;3.94;100.00;103100.28;4988341;28;45406;-75
2024/01/12 10:30:55;;;;;;;;;47.00;37.00;;;;;3.88;100.00;103081.44;4988393;28;45418;-76
2024/01/12 10:33:20;;;;;;;;;43.50;35.50;;;;;3.76;100.00;103060.34;4971583;28;46235;-75
2024/01/12 10:35:50;;;;;;;;;49.50;40.25;;;;;3.62;100.00;103041.63;4990235;28;45260;-76
2024/01/12 10:38:16;;;;;;;;;44.00;36.25;;;;;3.90;100.00;103095.59;4986097;28;44938;-75
2024/01/12 10:40:43;;;;;;;;;50.50;38.25;;;;;3.77;100.00;103072.63;4986619;28;45491;-75
2024/01/12 10:43:11;;;;;;;;;45.50;39.25;;;;;3.67;100.00;103056.94;4991358;28;46879;-75
2024/01/12 10:45:43;;;;;;;;;42.50;38.75;;;;;3.75;100.00;103062.81;4992629;28;45269;-75
2024/01/12 10:48:11;;;;;;;;;40.50;35.50;;;;;3.90;100.00;103084.19;4974949;28;45763;-75
2024/01/12 10:50:50;;;;;;;;;51.50;41.50;;;;;3.76;100.00;103056.81;4975315;28;45264;-76
2024/01/12 10:53:23;;;;;;;;;45.00;36.50;;;;;3.81;100.00;103063.38;4986244;28;45616;-76
2024/01/12 10:55:55;;;;;;;;;43.50;36.00;;;;;3.84;100.00;103063.66;4962448;28;45673;-76
2024/01/12 10:58:21;;;;;;;;;49.75;39.00;;;;;3.55;100.00;103014.91;4952723;28;45385;-77
2024/01/12 11:00:47;;;;;;;;;42.25;33.25;;;;;3.85;100.00;103068.09;4962460;28;45437;-76
2024/01/12 11:03:15;;;;;;;;;45.25;37.50;;;;;3.92;100.00;103074.75;4962772;28;45543;-76